createdAt,value
2018-04-10T00:00:13.092Z,61.6
2018-04-10T00:05:03.426Z,61.6
2018-04-10T00:10:20.914Z,61.9
2018-04-10T00:15:07.723Z,61.9
2018-04-10T00:20:03.229Z,61.8
2018-04-10T00:25:07.672Z,62.1
2018-04-10T00:35:13.611Z,62.3
2018-04-10T00:40:18.639Z,62.4
2018-04-10T00:45:02.944Z,62.4
2018-04-10T00:50:05.774Z,62.9
2018-04-10T00:55:33.088Z,63.1
2018-04-10T01:00:06.049Z,63.1
2018-04-10T01:05:18.077Z,63.4
2018-04-10T01:10:10.476Z,63.7
2018-04-10T01:15:08.315Z,63.9
2018-04-10T01:20:02.787Z,63.9
2018-04-10T01:25:28.455Z,64.6
2018-04-10T01:30:02.871Z,64.6
2018-04-10T01:35:07.742Z,65.1
2018-04-10T01:40:15.556Z,65.3
2018-04-10T01:45:13.728Z,65.7
2018-04-10T01:50:18.693Z,65.6
2018-04-10T01:55:20.899Z,66
2018-04-10T02:00:08.715Z,66.1
2018-04-10T02:05:13.397Z,66.3
2018-04-10T02:10:11.175Z,66.7
2018-04-10T02:20:05.724Z,66.9
2018-04-10T02:25:10.487Z,66.8
2018-04-10T02:30:28.571Z,66.8
2018-04-10T02:35:03.248Z,66.8
2018-04-10T02:40:05.941Z,66.8
2018-04-10T02:45:23.276Z,53.7
2018-04-10T02:50:05.406Z,66.5
2018-04-10T02:55:26.307Z,66.4
2018-04-10T03:00:13.160Z,66.4
2018-04-10T03:05:06.150Z,66.5
2018-04-10T03:10:08.315Z,66.7
2018-04-10T03:15:08.061Z,66.5
2018-04-10T03:20:18.066Z,66.4
2018-04-10T03:25:26.148Z,64.7
2018-04-10T03:30:07.841Z,66.5
2018-04-10T03:35:28.689Z,66.4
2018-04-10T03:40:10.400Z,66.5
2018-04-10T03:45:21.175Z,66.4
2018-04-10T03:50:17.971Z,66.6
2018-04-10T03:55:03.358Z,66.7
2018-04-10T04:00:20.740Z,66.7
2018-04-10T04:05:20.432Z,66.7
2018-04-10T04:15:25.757Z,66.7
2018-04-10T04:20:26.307Z,66.8
2018-04-10T04:25:02.938Z,66.8
2018-04-10T04:30:11.219Z,67.1
2018-04-10T04:35:05.834Z,67
2018-04-10T04:40:18.270Z,67.1
2018-04-10T04:45:26.395Z,67
2018-04-10T04:50:08.187Z,66.8
2018-04-10T04:55:12.954Z,67.1
2018-04-10T05:00:21.324Z,67
2018-04-10T05:05:23.540Z,67.1
2018-04-10T05:15:03.210Z,66.8
2018-04-10T05:20:15.570Z,66.8
2018-04-10T05:25:39.007Z,66.7
2018-04-10T05:30:07.795Z,66.7
2018-04-10T05:35:05.974Z,66.7
2018-04-10T05:40:05.663Z,66.4
2018-04-10T05:45:10.423Z,66.1
2018-04-10T05:50:03.066Z,66.1
2018-04-10T05:55:33.230Z,65.7
2018-04-10T06:00:02.905Z,65.7
2018-04-10T06:05:02.760Z,65.6
2018-04-10T06:10:13.006Z,65.3
2018-04-10T06:15:03.550Z,65.3
2018-04-10T06:20:08.388Z,64.7
2018-04-10T06:25:08.006Z,64.2
2018-04-10T06:35:13.302Z,63.9
2018-04-10T06:40:38.844Z,63.4
2018-04-10T06:50:20.720Z,62.9
2018-04-10T06:55:05.225Z,62.8
2018-04-10T07:00:10.582Z,62.3
2018-04-10T07:05:08.616Z,61.8
2018-04-10T07:10:15.588Z,61.5
2018-04-10T07:15:33.885Z,61
2018-04-10T07:20:11.243Z,60.4
2018-04-10T07:25:03.301Z,60.4
2018-04-10T07:30:02.979Z,60.1
2018-04-10T07:35:07.840Z,59.4
2018-04-10T07:40:15.750Z,58.6
2018-04-10T07:45:10.328Z,58.5
2018-04-10T07:50:05.537Z,58
2018-04-10T07:55:02.731Z,57.9
2018-04-10T08:00:16.048Z,57.5
2018-04-10T08:05:05.804Z,57.5
2018-04-10T08:10:02.961Z,57.4
2018-04-10T08:15:05.220Z,57.2
2018-04-10T08:20:08.090Z,57.1
2018-04-10T08:25:10.493Z,56.8
2018-04-10T08:35:06.071Z,56.1
2018-04-10T08:40:18.437Z,55.8
2018-04-10T08:45:05.500Z,55.6
2018-04-10T08:50:15.844Z,55
2018-04-10T08:55:20.685Z,54.2
2018-04-10T09:00:03.353Z,54.2
2018-04-10T09:05:08.146Z,53.4
2018-04-10T09:10:05.832Z,53.4
2018-04-10T09:15:08.166Z,52.4
2018-04-10T09:20:02.979Z,52.4
2018-04-10T09:25:02.662Z,52.9
2018-04-10T09:30:10.398Z,51.5
2018-04-10T09:35:08.498Z,51.5
2018-04-10T09:40:03.056Z,51.4
2018-04-10T09:45:12.937Z,50.7
2018-04-10T09:50:21.403Z,50.2
2018-04-10T09:55:11.010Z,50.2
2018-04-10T10:00:25.486Z,49.8
2018-04-10T10:10:23.431Z,49.3
2018-04-10T10:15:05.653Z,49.2
2018-04-10T10:20:05.993Z,48.7
2018-04-10T10:25:18.352Z,47.7
2018-04-10T10:30:03.090Z,47.8
2018-04-10T10:40:07.949Z,47.7
2018-04-10T10:45:03.679Z,47.6
2018-04-10T10:55:18.111Z,45.9
2018-04-10T11:00:02.992Z,45.8
2018-04-10T11:05:03.593Z,45.2
2018-04-10T11:10:02.783Z,45.5
2018-04-10T11:20:03.138Z,45.1
2018-04-10T11:25:15.534Z,44.8
2018-04-10T11:35:10.434Z,45.1
2018-04-10T11:40:08.666Z,42.9
2018-04-10T11:45:36.327Z,42.5
2018-04-10T11:50:18.226Z,41.7
2018-04-10T11:55:05.461Z,42
2018-04-10T12:00:08.352Z,41.6
2018-04-10T12:05:05.559Z,42
2018-04-10T12:10:02.741Z,41.9
2018-04-10T12:15:03.508Z,42.1
2018-04-10T12:20:26.099Z,42.4
2018-04-10T12:25:18.229Z,42.1
2018-04-10T12:30:05.490Z,42.2
2018-04-10T12:35:20.471Z,41.6
2018-04-10T12:40:02.715Z,41.6
2018-04-10T12:45:08.569Z,41
2018-04-10T12:50:23.616Z,40.4
2018-04-10T12:55:10.932Z,39.9
2018-04-10T13:00:10.304Z,38.8
2018-04-10T13:05:26.369Z,39.1
2018-04-10T13:10:13.766Z,37.8
2018-04-10T13:15:23.653Z,12
2018-04-10T13:20:06.036Z,38.1
2018-04-10T13:25:16.074Z,36.7
2018-04-10T13:30:15.475Z,36.1
2018-04-10T13:35:11.224Z,36.2
2018-04-10T13:40:05.997Z,36.3
2018-04-10T13:45:03.239Z,36.3
2018-04-10T13:50:08.140Z,37.1
2018-04-10T13:55:20.682Z,36.8
2018-04-10T14:05:31.165Z,34.7
2018-04-10T14:10:05.923Z,34.7
2018-04-10T14:15:03.191Z,34.8
2018-04-10T14:20:02.981Z,34.8
2018-04-10T14:25:05.298Z,36
2018-04-10T14:30:03.105Z,36
2018-04-10T14:35:08.048Z,38.2
2018-04-10T14:40:05.868Z,38.7
2018-04-10T14:50:07.898Z,37.8
2018-04-10T14:55:06.147Z,39.5
2018-04-10T15:00:07.935Z,37.4
2018-04-10T15:05:02.753Z,37.5
2018-04-10T15:10:23.266Z,38
2018-04-10T15:15:02.999Z,38
2018-04-10T15:20:02.816Z,38.6
2018-04-10T15:25:06.116Z,39.4
2018-04-10T15:30:02.847Z,39.3
2018-04-10T15:35:20.459Z,38.5
2018-04-10T15:40:02.831Z,38.5
2018-04-10T15:45:06.164Z,35.7
2018-04-10T15:55:06.072Z,37.4
2018-04-10T16:00:02.780Z,37.4
2018-04-10T16:05:03.640Z,37.4
2018-04-10T16:10:08.013Z,37.5
2018-04-10T16:15:22.976Z,37.8
2018-04-10T16:20:15.533Z,38.2
2018-04-10T16:25:31.470Z,37.8
2018-04-10T16:30:10.855Z,37.5
2018-04-10T16:35:05.628Z,38.2
2018-04-10T16:40:20.540Z,38.2
2018-04-10T16:50:10.698Z,37.8
2018-04-10T16:55:05.377Z,36
2018-04-10T17:00:15.832Z,36.2
2018-04-10T17:05:10.575Z,35.7
2018-04-10T17:10:13.010Z,36.1
2018-04-10T17:15:10.280Z,36.3
2018-04-10T17:20:20.848Z,36.8
2018-04-10T17:25:20.729Z,37.4
2018-04-10T17:30:18.714Z,37.6
2018-04-10T17:35:18.542Z,38.2
2018-04-10T17:40:07.888Z,37.9
2018-04-10T17:45:28.846Z,38.1
2018-04-10T17:50:03.556Z,38.1
2018-04-10T17:55:05.891Z,38.7
2018-04-10T18:00:26.379Z,39
2018-04-10T18:10:08.183Z,39.1
2018-04-10T18:15:02.869Z,39.1
2018-04-10T18:20:26.428Z,39.6
2018-04-10T18:30:20.391Z,39.6
2018-04-10T18:35:03.575Z,39.6
2018-04-10T18:40:05.316Z,39.9
2018-04-10T18:45:03.507Z,40
2018-04-10T18:50:10.840Z,40.3
2018-04-10T18:55:03.134Z,40.3
2018-04-10T19:00:08.345Z,39.6
2018-04-10T19:05:18.300Z,39.1
2018-04-10T19:10:11.116Z,39.7
2018-04-10T19:15:18.341Z,39.8
2018-04-10T19:20:08.276Z,39.8
2018-04-10T19:25:03.136Z,39.7
2018-04-10T19:30:30.791Z,40
2018-04-10T19:35:23.759Z,40.1
2018-04-10T19:40:03.313Z,40.1
2018-04-10T19:45:08.125Z,42
2018-04-10T19:50:07.889Z,48.4
2018-04-10T19:55:26.712Z,51
2018-04-10T20:00:13.704Z,52.2
2018-04-10T20:05:13.390Z,53
2018-04-10T20:10:05.362Z,53.7
2018-04-10T20:15:02.676Z,53.7
2018-04-10T20:20:11.122Z,54.5
2018-04-10T20:30:02.768Z,54.9
2018-04-10T20:40:31.294Z,55.9
2018-04-10T20:45:05.489Z,56.4
2018-04-10T20:50:05.795Z,56.4
2018-04-10T20:55:03.119Z,56.4
2018-04-10T21:00:18.039Z,57.5
2018-04-10T21:05:11.060Z,57.6
2018-04-10T21:10:08.371Z,57.9
2018-04-10T21:15:10.704Z,58.1
2018-04-10T21:20:13.627Z,58.4
2018-04-10T21:25:28.554Z,58.6
2018-04-10T21:30:05.790Z,58.7
2018-04-10T21:35:05.555Z,58.9
2018-04-10T21:40:12.845Z,59.3
2018-04-10T21:45:03.410Z,59.3
2018-04-10T21:50:08.204Z,59.6
2018-04-10T21:55:07.834Z,60.1
2018-04-10T22:05:05.527Z,60.9
2018-04-10T22:15:13.203Z,61.5
2018-04-10T22:20:07.970Z,62
2018-04-10T22:25:06.040Z,62.2
2018-04-10T22:30:23.870Z,62.4
2018-04-10T22:35:10.850Z,62.2
2018-04-10T22:40:05.422Z,62.5
2018-04-10T22:45:21.224Z,62.6
2018-04-10T22:50:07.908Z,62.9
2018-04-10T22:55:03.469Z,62.9
2018-04-10T23:00:03.069Z,63.1
2018-04-10T23:05:30.513Z,63.4
2018-04-10T23:10:11.158Z,63.6
2018-04-10T23:15:08.258Z,64.3
2018-04-10T23:20:02.932Z,64.1
2018-04-10T23:25:06.109Z,64.2
2018-04-10T23:30:28.054Z,64.6
2018-04-10T23:35:23.880Z,65
2018-04-10T23:40:13.128Z,65.1
2018-04-10T23:45:08.616Z,65.2
2018-04-10T23:50:05.749Z,65.3
2018-04-10T23:55:07.861Z,65.5
